Time;durP1;ratioP1;P1;durP2;ratioP2;P2;SDS_P1;SDS_P2;PMS_P1;PMS_P2;Temp;Humidity;BMP_temperature;BMP_pressure;BME280_temperature;BME280_humidity;BME280_pressure;Samples;Min_cycle;Max_cycle;Signal;HPM_P1;HPM_P2
2022/12/20 00:00:41;;;;;;;33.70;24.17;;;;;;;2.78;100.00;103981.19;2108468;28;20226;-62
2022/12/20 00:01:42;;;;;;;36.63;24.20;;;;;;;3.01;100.00;104008.47;2111217;28;20195;-61
2022/12/20 00:02:42;;;;;;;33.30;23.30;;;;;;;3.06;100.00;104024.00;2114096;28;20222;-62
2022/12/20 00:03:44;;;;;;;35.37;23.90;;;;;;;3.07;100.00;104018.22;2114049;28;20185;-62
2022/12/20 00:04:44;;;;;;;35.05;24.17;;;;;;;3.08;100.00;104021.78;2113868;28;20512;-62
2022/12/20 00:05:45;;;;;;;34.93;24.23;;;;;;;3.07;100.00;104026.44;2113834;28;20169;-62
2022/12/20 00:06:46;;;;;;;35.50;24.23;;;;;;;3.06;100.00;104030.31;2114751;28;20171;-61
2022/12/20 00:07:46;;;;;;;36.27;24.33;;;;;;;3.12;100.00;104028.28;2113895;28;20215;-61
2022/12/20 00:08:53;;;;;;;35.00;23.67;;;;;;;2.32;100.00;103904.44;2113498;28;20730;-62
2022/12/20 00:09:53;;;;;;;33.63;23.33;;;;;;;3.05;100.00;104025.94;2113998;28;20181;-62
2022/12/20 00:10:54;;;;;;;34.97;23.80;;;;;;;3.04;100.00;104020.75;2114216;28;20698;-62
2022/12/20 00:11:54;;;;;;;35.70;24.33;;;;;;;3.07;100.00;104022.88;2114259;28;20220;-61
2022/12/20 00:12:55;;;;;;;38.43;25.17;;;;;;;2.07;100.00;103858.31;2114296;28;20699;-62
2022/12/20 00:13:56;;;;;;;34.70;24.27;;;;;;;3.07;100.00;104022.88;2113989;28;20182;-62
2022/12/20 00:14:57;;;;;;;33.70;23.33;;;;;;;2.47;100.00;103917.88;2113695;28;20167;-61
2022/12/20 00:16:06;;;;;;;36.77;24.70;;;;;;;2.97;100.00;103999.22;2114206;28;20221;-62
2022/12/20 00:17:07;;;;;;;35.35;23.10;;;;;;;3.11;100.00;104018.44;2106038;28;20172;-62
2022/12/20 00:18:08;;;;;;;36.80;24.43;;;;;;;2.61;100.00;103940.66;2105951;28;20184;-62
2022/12/20 00:19:09;;;;;;;35.35;24.05;;;;;;;3.11;100.00;104022.00;2112553;28;20547;-61
2022/12/20 00:20:10;;;;;;;34.40;24.42;;;;;;;3.15;100.00;104022.22;2108206;28;20195;-61
2022/12/20 00:21:13;;;;;;;35.60;23.93;;;;;;;3.16;100.00;104018.34;2110241;28;20251;-62
2022/12/20 00:22:13;;;;;;;35.55;24.38;;;;;;;3.16;100.00;104021.91;2114127;28;20202;-62
2022/12/20 00:23:14;;;;;;;33.53;23.33;;;;;;;3.17;100.00;104018.06;2113797;28;20825;-62
2022/12/20 00:24:14;;;;;;;37.70;24.87;;;;;;;3.10;100.00;104023.13;2113764;28;20361;-62
2022/12/20 00:25:15;;;;;;;35.33;24.57;;;;;;;3.07;100.00;104020.13;2113407;28;20211;-62
2022/12/20 00:26:17;;;;;;;34.70;23.40;;;;;;;3.08;100.00;104010.81;2114658;28;20683;-61
2022/12/20 00:27:18;;;;;;;36.75;22.65;;;;;;;3.09;100.00;104024.22;2114319;28;20635;-62
2022/12/20 00:28:18;;;;;;;36.83;24.70;;;;;;;2.82;100.00;103991.25;2113777;28;20584;-62
2022/12/20 00:29:19;;;;;;;35.53;23.93;;;;;;;3.07;100.00;104017.41;2114048;28;20269;-62
2022/12/20 00:30:19;;;;;;;34.37;23.93;;;;;;;3.07;100.00;104014.66;2113882;28;20193;-62
2022/12/20 00:31:21;;;;;;;36.13;24.67;;;;;;;2.86;100.00;103996.94;2113792;28;20194;-62
2022/12/20 00:32:22;;;;;;;34.75;24.33;;;;;;;2.98;100.00;104013.75;2113931;28;20167;-62
2022/12/20 00:33:22;;;;;;;35.13;24.60;;;;;;;3.00;100.00;104020.53;2113996;28;20690;-61
2022/12/20 00:34:22;;;;;;;35.90;24.13;;;;;;;3.01;100.00;104022.16;2113401;28;20208;-61
2022/12/20 00:35:23;;;;;;;32.43;23.33;;;;;;;3.00;100.00;104020.53;2113053;28;20739;-62
2022/12/20 00:36:26;;;;;;;35.27;23.60;;;;;;;3.01;100.00;104018.59;2113873;28;20239;-62
2022/12/20 00:37:26;;;;;;;37.78;24.15;;;;;;;2.62;100.00;103958.69;2114266;28;20703;-62
2022/12/20 00:38:27;;;;;;;33.93;23.73;;;;;;;2.44;100.00;103937.66;2113574;28;20571;-62
2022/12/20 00:39:27;;;;;;;34.30;23.50;;;;;;;3.04;100.00;104027.03;2113750;28;20217;-62
2022/12/20 00:40:27;;;;;;;32.93;23.03;;;;;;;3.02;100.00;104012.81;2113925;28;20170;-62
2022/12/20 00:41:30;;;;;;;33.77;23.07;;;;;;;2.97;100.00;104004.69;2113814;28;20647;-61
2022/12/20 00:42:31;;;;;;;35.22;24.00;;;;;;;2.93;100.00;104006.41;2113782;28;20716;-62
2022/12/20 00:43:32;;;;;;;33.90;23.43;;;;;;;2.91;100.00;104002.31;2114154;28;20589;-61
2022/12/20 00:44:33;;;;;;;33.88;24.05;;;;;;;2.90;100.00;104008.94;2105329;28;20190;-61
2022/12/20 00:45:33;;;;;;;35.07;23.23;;;;;;;2.91;100.00;104005.06;2111114;28;20210;-62
2022/12/20 00:46:34;;;;;;;35.87;24.20;;;;;;;2.83;100.00;104011.25;2113074;28;20627;-62
2022/12/20 00:47:34;;;;;;;34.97;23.27;;;;;;;2.85;100.00;104018.06;2109839;28;20619;-62
2022/12/20 00:48:35;;;;;;;34.77;23.77;;;;;;;2.13;100.00;103891.88;2113682;28;20324;-61
2022/12/20 00:49:36;;;;;;;35.53;24.25;;;;;;;2.87;100.00;103999.38;2113442;28;20181;-62
2022/12/20 00:50:36;;;;;;;35.50;24.23;;;;;;;2.90;100.00;103996.06;2113832;28;20176;-61
2022/12/20 00:51:37;;;;;;;33.47;22.80;;;;;;;2.90;100.00;103998.78;2114460;28;20170;-62
2022/12/20 00:52:38;;;;;;;34.40;23.30;;;;;;;2.77;100.00;103971.34;2113828;28;20610;-61
2022/12/20 00:53:38;;;;;;;39.77;24.57;;;;;;;2.93;100.00;104005.59;2113802;28;20194;-62
2022/12/20 00:54:39;;;;;;;34.67;23.10;;;;;;;2.93;100.00;103998.19;2113403;28;20718;-61
2022/12/20 00:55:44;;;;;;;35.67;23.60;;;;;;;2.95;100.00;104004.19;2113531;28;20544;-61
2022/12/20 00:56:44;;;;;;;33.90;22.15;;;;;;;2.98;100.00;104006.31;2113748;28;20194;-61
2022/12/20 00:57:44;;;;;;;35.23;23.93;;;;;;;2.97;100.00;104001.94;2113581;28;20678;-61
2022/12/20 00:58:45;;;;;;;36.13;24.50;;;;;;;2.89;100.00;103991.69;2113685;28;20174;-62
2022/12/20 00:59:46;;;;;;;36.43;24.33;;;;;;;2.88;100.00;103992.78;2113275;28;20200;-61
2022/12/20 01:00:47;;;;;;;33.40;22.67;;;;;;;2.87;100.00;103998.59;2114180;28;20758;-62
2022/12/20 01:01:47;;;;;;;37.67;23.37;;;;;;;2.24;100.00;103926.19;2113787;28;20198;-62
2022/12/20 01:02:48;;;;;;;34.50;22.93;;;;;;;2.79;100.00;104000.06;2113597;28;20194;-62
2022/12/20 01:03:49;;;;;;;36.33;23.53;;;;;;;2.82;100.00;103993.19;2113482;28;20202;-62
2022/12/20 01:04:50;;;;;;;33.10;23.38;;;;;;;2.80;100.00;103998.13;2113513;28;20197;-62
2022/12/20 01:05:51;;;;;;;33.07;22.70;;;;;;;2.81;100.00;103992.38;2110370;28;20230;-62
2022/12/20 01:06:52;;;;;;;34.72;23.80;;;;;;;2.69;100.00;103985.72;2105474;28;20200;-62
2022/12/20 01:07:52;;;;;;;33.67;22.90;;;;;;;2.72;100.00;103990.59;2106421;28;20187;-62
2022/12/20 01:08:54;;;;;;;34.07;24.13;;;;;;;2.78;100.00;103989.41;2113968;28;20197;-61
2022/12/20 01:09:54;;;;;;;36.95;23.70;;;;;;;2.82;100.00;103982.22;2105072;28;20186;-61
2022/12/20 01:11:05;;;;;;;33.80;23.30;;;;;;;2.85;100.00;103989.84;2112235;28;20277;-62
2022/12/20 01:12:05;;;;;;;34.40;22.70;;;;;;;2.83;100.00;103986.59;2113878;28;20551;-61
2022/12/20 01:13:06;;;;;;;35.30;24.67;;;;;;;2.81;100.00;103984.16;2113653;27;20182;-61
2022/12/20 01:14:11;;;;;;;34.97;23.10;;;;;;;2.77;100.00;103979.56;2113151;28;20647;-62
2022/12/20 01:15:12;;;;;;;37.95;24.25;;;;;;;2.63;100.00;103978.69;2113462;28;20390;-61
2022/12/20 01:16:16;;;;;;;36.17;24.80;;;;;;;2.57;100.00;103979.91;2113681;28;20206;-62
2022/12/20 01:17:17;;;;;;;34.90;23.50;;;;;;;2.58;100.00;103989.72;2113732;28;20174;-61
2022/12/20 01:18:17;;;;;;;36.33;25.00;;;;;;;2.45;100.00;103969.38;2113299;28;20174;-62
2022/12/20 01:19:18;;;;;;;34.87;23.67;;;;;;;2.49;100.00;103981.38;2112123;28;20683;-61
2022/12/20 01:20:18;;;;;;;36.20;24.27;;;;;;;2.56;100.00;103972.78;2113061;28;20204;-61
2022/12/20 01:21:22;;;;;;;35.70;23.83;;;;;;;2.52;100.00;103977.22;2113685;28;20198;-62
2022/12/20 01:22:22;;;;;;;35.60;24.58;;;;;;;2.30;100.00;103938.69;2113569;28;20713;-61
2022/12/20 01:23:22;;;;;;;35.00;24.17;;;;;;;2.56;100.00;103975.53;2113628;28;20762;-62
2022/12/20 01:24:23;;;;;;;33.10;23.30;;;;;;;2.08;100.00;103901.00;2113129;28;20188;-62
2022/12/20 01:25:23;;;;;;;39.77;24.57;;;;;;;2.60;100.00;103977.38;2113052;28;20197;-61
2022/12/20 01:26:27;;;;;;;36.80;24.70;;;;;;;2.64;100.00;103972.09;2111638;28;20624;-62
2022/12/20 01:27:28;;;;;;;34.28;24.20;;;;;;;2.67;100.00;103969.56;2106483;28;20269;-62
2022/12/20 01:28:28;;;;;;;36.70;25.03;;;;;;;2.68;100.00;103973.94;2113229;28;20189;-62
2022/12/20 01:29:29;;;;;;;34.80;24.07;;;;;;;2.62;100.00;103955.16;2113612;28;20229;-61
2022/12/20 01:30:29;;;;;;;34.93;24.23;;;;;;;2.68;100.00;103971.19;2113743;28;20205;-62
2022/12/20 01:31:30;;;;;;;36.87;24.13;;;;;;;1.84;100.00;103831.84;2113774;28;20189;-62
2022/12/20 01:32:30;;;;;;;35.87;24.17;;;;;;;2.65;100.00;103962.78;2113604;28;20192;-62
2022/12/20 01:33:31;;;;;;;34.97;23.33;;;;;;;2.58;100.00;103967.81;2113460;28;20189;-62
2022/12/20 01:34:31;;;;;;;36.27;25.00;;;;;;;2.45;100.00;103955.69;2113058;28;20174;-61
2022/12/20 01:35:32;;;;;;;36.10;25.03;;;;;;;2.40;100.00;103944.00;2112901;28;20240;-62
2022/12/20 01:36:36;;;;;;;36.13;24.27;;;;;;;2.25;100.00;103911.38;2113155;28;20677;-61
2022/12/20 01:37:37;;;;;;;34.78;24.13;;;;;;;2.29;100.00;103915.16;2114257;28;20167;-62
2022/12/20 01:38:40;;;;;;;35.83;24.23;;;;;;;2.62;100.00;103963.38;2113241;28;20190;-62
2022/12/20 01:39:41;;;;;;;38.00;25.05;;;;;;;2.62;100.00;103966.13;2112339;28;20638;-61
2022/12/20 01:40:42;;;;;;;34.20;24.17;;;;;;;2.54;100.00;103955.84;2113858;28;20183;-62
2022/12/20 01:41:44;;;;;;;37.97;24.57;;;;;;;2.39;100.00;103958.81;2113596;28;20197;-61
2022/12/20 01:42:44;;;;;;;37.28;25.05;;;;;;;2.41;100.00;103956.59;2113299;28;20197;-61
2022/12/20 01:43:56;;;;;;;37.17;24.63;;;;;;;2.47;100.00;103956.19;2113464;28;20327;-62
2022/12/20 01:44:58;;;;;;;33.17;23.17;;;;;;;2.33;100.00;103936.19;2113397;28;20606;-62
2022/12/20 01:45:58;;;;;;;37.33;24.23;;;;;;;2.50;100.00;103952.88;2112742;28;20194;-61
2022/12/20 01:46:59;;;;;;;36.70;24.50;;;;;;;2.51;100.00;103957.25;2113508;28;20204;-61
2022/12/20 01:48:00;;;;;;;35.20;23.77;;;;;;;2.54;100.00;103950.34;2105681;28;20181;-61
2022/12/20 01:49:34;;;;;;;36.45;24.83;;;;;;;2.06;100.00;103864.09;2112181;28;20238;-61
2022/12/20 01:50:35;;;;;;;35.35;22.77;;;;;;;2.58;100.00;103954.13;2106435;28;20165;-61
2022/12/20 01:51:42;;;;;;;35.42;23.63;;;;;;;2.57;100.00;103950.56;2113226;28;20168;-62
2022/12/20 01:52:45;;;;;;;35.53;24.55;;;;;;;2.59;100.00;103947.53;2114005;28;20581;-62
2022/12/20 01:53:50;;;;;;;36.33;23.85;;;;;;;2.59;100.00;103947.53;2105577;28;20271;-61
2022/12/20 01:55:14;;;;;;;34.80;24.33;;;;;;;2.63;100.00;103952.09;2112877;28;20278;-62
2022/12/20 01:56:15;;;;;;;37.65;23.90;;;;;;;2.50;100.00;103947.41;2104989;28;20249;-62
2022/12/20 01:57:19;;;;;;;34.70;23.33;;;;;;;2.40;100.00;103954.94;2113732;28;20181;-61
2022/12/20 01:58:20;;;;;;;35.97;24.02;;;;;;;2.46;100.00;103949.09;2105423;28;20191;-62
2022/12/20 01:59:21;;;;;;;37.30;24.90;;;;;;;2.54;100.00;103951.19;2111914;28;20288;-62
2022/12/20 02:00:22;;;;;;;37.27;24.10;;;;;;;2.57;100.00;103941.56;2112670;28;20396;-62
2022/12/20 02:01:23;;;;;;;35.03;23.60;;;;;;;2.59;100.00;103940.16;2113502;28;20197;-61
2022/12/20 02:02:24;;;;;;;38.22;24.15;;;;;;;2.64;100.00;103945.53;2113350;28;20213;-61
2022/12/20 02:03:24;;;;;;;35.80;23.03;;;;;;;1.73;100.00;103796.75;2113365;28;20189;-61
2022/12/20 02:04:25;;;;;;;34.00;23.13;;;;;;;2.56;100.00;103929.78;2112757;28;20210;-62
2022/12/20 02:05:25;;;;;;;33.43;23.03;;;;;;;1.91;100.00;103815.09;2113198;28;20175;-62
2022/12/20 02:06:26;;;;;;;35.87;23.97;;;;;;;2.70;100.00;103958.03;2113928;28;20175;-61
2022/12/20 02:07:31;;;;;;;33.57;23.70;;;;;;;2.71;100.00;103943.22;2113485;28;20190;-61
2022/12/20 02:08:32;;;;;;;33.50;22.77;;;;;;;2.76;100.00;103939.56;2113209;28;20250;-62
2022/12/20 02:09:34;;;;;;;34.97;23.10;;;;;;;2.15;100.00;103841.22;2112394;28;20196;-61
2022/12/20 02:10:52;;;;;;;33.88;22.45;;;;;;;2.77;100.00;103943.97;2112922;28;20222;-61
2022/12/20 02:12:28;;;;;;;38.00;22.95;;;;;;;2.75;100.00;103938.78;2113327;28;20195;-61
2022/12/20 02:13:34;;;;;;;36.80;23.38;;;;;;;2.73;100.00;103945.66;2096649;28;20196;-62
2022/12/20 02:14:39;;;;;;;33.88;22.70;;;;;;;2.70;100.00;103940.78;2113345;28;20244;-61
2022/12/20 02:15:56;;;;;;;35.53;23.42;;;;;;;2.66;100.00;103932.34;2105021;28;20166;-61
2022/12/20 02:17:16;;;;;;;33.88;23.40;;;;;;;2.66;100.00;103937.84;2105449;28;20170;-62
2022/12/20 02:18:43;;;;;;;35.80;23.90;;;;;;;2.65;100.00;103938.94;2113007;28;20160;-62
2022/12/20 02:19:52;;;;;;;37.25;23.27;;;;;;;2.65;100.00;103930.72;2112895;28;20253;-61
2022/12/20 02:21:12;;;;;;;35.40;22.85;;;;;;;2.68;100.00;103935.59;2113371;28;20262;-62
2022/12/20 02:22:43;;;;;;;34.85;22.92;;;;;;;2.67;100.00;103931.25;2113455;28;20209;-62
2022/12/20 02:24:16;;;;;;;34.65;21.60;;;;;;;2.30;100.00;103867.53;2105298;28;20172;-61
2022/12/20 02:25:26;;;;;;;32.85;22.38;;;;;;;2.71;100.00;103925.97;2107414;28;20212;-61
2022/12/20 02:26:43;;;;;;;36.45;23.20;;;;;;;2.70;100.00;103921.59;2112970;28;20207;-61
2022/12/20 02:28:04;;;;;;;35.25;23.40;;;;;;;2.59;100.00;103923.72;2109241;28;20241;-61
2022/12/20 02:29:24;;;;;;;33.25;22.27;;;;;;;2.60;100.00;103921.78;2110816;28;20209;-62
2022/12/20 02:30:34;;;;;;;34.03;21.65;;;;;;;2.54;100.00;103928.44;2113143;28;20701;-61
2022/12/20 02:31:41;;;;;;;34.55;22.52;;;;;;;2.55;100.00;103916.38;2115023;28;20226;-62
2022/12/20 02:32:45;;;;;;;34.88;23.58;;;;;;;2.53;100.00;103913.16;2114969;28;20624;-62
2022/12/20 02:33:47;;;;;;;33.70;22.55;;;;;;;2.56;100.00;103918.81;2114881;28;20193;-62
2022/12/20 02:34:49;;;;;;;33.75;22.38;;;;;;;2.58;100.00;103910.31;2114543;28;20201;-61
2022/12/20 02:35:49;;;;;;;36.13;23.77;;;;;;;2.56;100.00;103910.63;2114635;28;20637;-61
2022/12/20 02:36:51;;;;;;;31.97;21.97;;;;;;;2.47;100.00;103912.41;2114924;28;20205;-62
2022/12/20 02:37:57;;;;;;;36.55;23.90;;;;;;;2.13;100.00;103879.03;2114926;28;20169;-62
2022/12/20 02:38:58;;;;;;;32.97;23.02;;;;;;;2.12;100.00;103904.75;2114694;28;20241;-61
2022/12/20 02:39:59;;;;;;;36.03;23.80;;;;;;;2.14;100.00;103899.78;2114190;28;20240;-61
2022/12/20 02:41:02;;;;;;;33.72;23.30;;;;;;;2.26;100.00;103907.56;2115404;28;20627;-61
2022/12/20 02:42:15;;;;;;;37.10;24.10;;;;;;;2.28;100.00;103905.34;2115324;28;20341;-61
2022/12/20 02:45:16;;;;;;;34.88;23.23;;;;;;;2.34;100.00;103917.81;2106740;28;20170;-62
2022/12/20 02:46:19;;;;;;;33.60;22.50;;;;;;;1.28;100.00;103734.56;2114713;28;20235;-62
2022/12/20 02:47:29;;;;;;;33.10;22.42;;;;;;;2.08;100.00;103895.50;2114683;28;20202;-61
2022/12/20 02:48:32;;;;;;;34.53;22.52;;;;;;;1.85;100.00;103884.66;2109923;27;20509;-62
2022/12/20 02:49:37;;;;;;;36.22;23.90;;;;;;;2.05;100.00;103895.31;2109666;28;20195;-62
2022/12/20 02:50:44;;;;;;;36.67;23.20;;;;;;;2.05;100.00;103896.09;2114945;28;20205;-62
2022/12/20 02:51:48;;;;;;;36.00;23.17;;;;;;;2.04;100.00;103890.91;2114651;28;20202;-62
2022/12/20 02:52:50;;;;;;;37.20;23.30;;;;;;;1.97;100.00;103888.56;2114782;28;20301;-61
2022/12/20 02:53:50;;;;;;;34.13;22.95;;;;;;;2.01;100.00;103895.06;2114602;28;20365;-62
2022/12/20 02:54:53;;;;;;;35.53;23.87;;;;;;;2.01;100.00;103889.59;2114217;28;20183;-61
2022/12/20 02:56:09;;;;;;;36.40;23.70;;;;;;;1.63;100.00;103818.78;2114911;28;20176;-62
2022/12/20 02:57:21;;;;;;;32.47;22.35;;;;;;;2.14;100.00;103894.31;2106292;28;20165;-62
2022/12/20 02:58:51;;;;;;;36.75;24.17;;;;;;;2.03;100.00;103865.50;2114495;28;20171;-61
2022/12/20 03:00:14;;;;;;;34.20;22.45;;;;;;;2.15;100.00;103882.25;2112956;28;20229;-62
2022/12/20 03:01:44;;;;;;;33.03;22.45;;;;;;;2.22;100.00;103890.91;2114706;28;20224;-61
2022/12/20 03:04:07;;;;;;;34.42;22.35;;;;;;;2.13;100.00;103886.41;2106226;28;20168;-61
2022/12/20 03:05:07;;;;;;;35.78;23.42;;;;;;;2.18;100.00;103898.09;2114836;28;20556;-62
2022/12/20 03:06:08;;;;;;;32.90;22.67;;;;;;;2.19;100.00;103896.97;2114884;28;20269;-61
2022/12/20 03:07:12;;;;;;;35.57;22.83;;;;;;;2.14;100.00;103888.84;2114711;28;20597;-61
2022/12/20 03:08:12;;;;;;;33.25;22.77;;;;;;;2.22;100.00;103893.63;2114536;28;20572;-61
2022/12/20 03:09:12;;;;;;;35.77;23.73;;;;;;;2.21;100.00;103889.28;2114419;28;20197;-61
2022/12/20 03:10:13;;;;;;;32.90;22.80;;;;;;;2.13;100.00;103891.88;2114239;28;20693;-61
2022/12/20 03:11:14;;;;;;;35.17;22.60;;;;;;;2.09;100.00;103894.41;2114667;28;20164;-61
2022/12/20 03:12:15;;;;;;;33.43;22.57;;;;;;;2.16;100.00;103894.03;2114777;28;20625;-61
2022/12/20 03:13:16;;;;;;;35.03;23.02;;;;;;;2.19;100.00;103887.94;2113916;28;20217;-62
2022/12/20 03:14:17;;;;;;;33.40;21.77;;;;;;;2.24;100.00;103893.34;2106437;28;20193;-61
2022/12/20 03:15:18;;;;;;;34.63;22.73;;;;;;;2.31;100.00;103888.31;2113631;28;20271;-62
2022/12/20 03:16:18;;;;;;;33.00;22.47;;;;;;;1.35;100.00;103735.00;2114520;28;20548;-62
2022/12/20 03:17:18;;;;;;;34.77;22.50;;;;;;;2.22;100.00;103879.16;2114825;28;20183;-61
2022/12/20 03:18:19;;;;;;;34.73;22.87;;;;;;;2.19;100.00;103882.47;2114475;28;20219;-62
2022/12/20 03:19:20;;;;;;;33.97;22.93;;;;;;;2.19;100.00;103886.03;2114776;28;20567;-61
2022/12/20 03:20:20;;;;;;;37.40;23.17;;;;;;;2.18;100.00;103887.16;2114285;28;20179;-61
2022/12/20 03:21:21;;;;;;;34.10;23.27;;;;;;;2.18;100.00;103889.06;2114582;28;20648;-61
2022/12/20 03:22:22;;;;;;;31.97;21.73;;;;;;;2.19;100.00;103888.78;2114559;28;20283;-61
2022/12/20 03:23:23;;;;;;;34.47;23.27;;;;;;;2.17;100.00;103881.97;2113807;28;20296;-62
2022/12/20 03:24:25;;;;;;;37.37;23.43;;;;;;;1.79;100.00;103842.03;2113404;28;20188;-62
2022/12/20 03:25:25;;;;;;;32.90;21.52;;;;;;;1.97;100.00;103861.22;2108067;28;20201;-61
2022/12/20 03:26:26;;;;;;;31.97;22.30;;;;;;;2.15;100.00;103887.72;2110679;28;20211;-61
2022/12/20 03:27:27;;;;;;;31.73;21.73;;;;;;;2.19;100.00;103886.03;2114622;27;20228;-61
2022/12/20 03:28:28;;;;;;;35.42;22.63;;;;;;;2.17;100.00;103874.56;2114527;28;20176;-61
2022/12/20 03:29:28;;;;;;;33.13;22.37;;;;;;;2.23;100.00;103880.78;2113929;28;20323;-61
2022/12/20 03:30:28;;;;;;;32.27;21.50;;;;;;;2.27;100.00;103882.63;2115011;28;20175;-62
2022/12/20 03:31:29;;;;;;;33.33;22.03;;;;;;;2.27;100.00;103887.28;2114726;28;20263;-62
2022/12/20 03:32:29;;;;;;;33.80;21.67;;;;;;;2.28;100.00;103875.22;2114623;28;20614;-61
2022/12/20 03:33:30;;;;;;;32.37;22.07;;;;;;;1.86;100.00;103807.75;2114227;28;20554;-61
2022/12/20 03:34:30;;;;;;;33.47;21.67;;;;;;;2.17;100.00;103869.09;2109291;28;20196;-62
2022/12/20 03:35:31;;;;;;;32.23;21.57;;;;;;;2.07;100.00;103872.00;2108977;28;20183;-62
2022/12/20 03:36:31;;;;;;;33.70;22.83;;;;;;;2.07;100.00;103873.91;2112291;28;20680;-61
2022/12/20 03:37:32;;;;;;;34.53;21.93;;;;;;;1.82;100.00;103849.66;2106853;28;20183;-61
2022/12/20 03:38:32;;;;;;;31.73;22.10;;;;;;;1.11;100.00;103717.84;2114813;28;20628;-61
2022/12/20 03:39:33;;;;;;;34.50;22.37;;;;;;;2.05;100.00;103868.72;2113835;28;20187;-62
2022/12/20 03:40:33;;;;;;;34.07;22.57;;;;;;;1.99;100.00;103858.97;2114456;28;20217;-62
2022/12/20 03:41:34;;;;;;;33.73;22.07;;;;;;;2.05;100.00;103860.53;2108260;28;20189;-61
2022/12/20 03:42:35;;;;;;;33.97;22.37;;;;;;;2.08;100.00;103867.31;2109952;28;20300;-62
2022/12/20 03:43:35;;;;;;;33.67;21.92;;;;;;;2.10;100.00;103857.72;2113978;28;20192;-62
2022/12/20 03:44:36;;;;;;;30.53;21.27;;;;;;;2.10;100.00;103867.88;2113854;28;20164;-62
2022/12/20 03:45:36;;;;;;;30.93;21.50;;;;;;;2.06;100.00;103864.88;2112902;28;20201;-62
2022/12/20 03:46:36;;;;;;;29.90;21.37;;;;;;;1.74;100.00;103821.06;2105927;28;20180;-61
2022/12/20 03:47:37;;;;;;;31.77;22.20;;;;;;;1.87;100.00;103866.84;2106527;28;20173;-62
2022/12/20 03:48:37;;;;;;;31.60;21.27;;;;;;;0.95;100.00;103721.88;2112996;28;20565;-61
2022/12/20 03:49:38;;;;;;;35.77;23.03;;;;;;;1.85;100.00;103858.09;2113896;28;20231;-61
2022/12/20 03:50:38;;;;;;;32.47;21.50;;;;;;;1.33;100.00;103778.19;2114166;28;20190;-62
2022/12/20 03:51:39;;;;;;;32.67;22.33;;;;;;;1.83;100.00;103849.38;2114393;28;20188;-62
2022/12/20 03:52:39;;;;;;;32.33;21.87;;;;;;;1.90;100.00;103855.28;2114334;28;20429;-62
2022/12/20 03:53:40;;;;;;;33.13;21.90;;;;;;;1.63;100.00;103811.38;2114369;28;20177;-61
2022/12/20 03:54:40;;;;;;;32.07;21.63;;;;;;;1.94;100.00;103870.00;2113757;28;20263;-61
2022/12/20 03:55:41;;;;;;;32.87;21.63;;;;;;;1.44;100.00;103840.63;2114363;28;20168;-61
2022/12/20 03:56:41;;;;;;;35.70;21.90;;;;;;;1.39;100.00;103851.63;2114499;28;20256;-61
2022/12/20 03:57:41;;;;;;;34.73;21.87;;;;;;;1.50;100.00;103855.84;2114306;28;20233;-61
2022/12/20 03:58:42;;;;;;;33.23;22.83;;;;;;;1.46;100.00;103870.41;2113911;28;20200;-61
2022/12/20 03:59:43;;;;;;;34.50;22.67;;;;;;;1.52;100.00;103855.56;2113792;28;20201;-62
2022/12/20 04:00:43;;;;;;;35.90;22.38;;;;;;;1.42;100.00;103852.94;2114204;28;20194;-62
2022/12/20 04:01:44;;;;;;;34.77;23.20;;;;;;;1.45;100.00;103864.09;2114355;28;20173;-61
2022/12/20 04:02:44;;;;;;;35.27;22.67;;;;;;;1.43;100.00;103855.41;2113939;28;20183;-61
2022/12/20 04:03:45;;;;;;;33.40;21.83;;;;;;;1.50;100.00;103861.31;2114562;28;20205;-62
2022/12/20 04:04:46;;;;;;;35.37;22.30;;;;;;;1.55;100.00;103852.25;2113827;28;20314;-61
2022/12/20 04:05:46;;;;;;;34.30;23.33;;;;;;;1.43;100.00;103840.91;2113658;28;20195;-62
2022/12/20 04:06:47;;;;;;;36.53;23.90;;;;;;;1.36;100.00;103832.25;2109506;28;20183;-61
2022/12/20 04:07:47;;;;;;;32.27;21.70;;;;;;;1.58;100.00;103857.94;2109708;28;20636;-61
2022/12/20 04:08:48;;;;;;;33.70;21.80;;;;;;;1.55;100.00;103863.19;2114058;28;23102;-61
2022/12/20 04:09:48;;;;;;;34.03;22.40;;;;;;;1.42;100.00;103866.63;2113861;28;20172;-62
2022/12/20 04:12:08;;;;;;;35.38;21.63;;;;;;;1.12;100.00;103824.09;2112690;28;20243;-61
2022/12/20 04:13:08;;;;;;;34.10;22.30;;;;;;;1.33;100.00;103839.13;2106015;28;20184;-61
2022/12/20 04:14:09;;;;;;;34.77;21.63;;;;;;;1.42;100.00;103863.88;2114440;28;20236;-61
2022/12/20 04:15:09;;;;;;;35.57;22.43;;;;;;;1.34;100.00;103859.88;2113944;28;20206;-62
2022/12/20 04:16:11;;;;;;;32.00;21.93;;;;;;;1.22;100.00;103869.59;2114407;28;20187;-61
2022/12/20 04:17:12;;;;;;;33.55;22.30;;;;;;;1.25;100.00;103858.91;2114106;28;20660;-61
2022/12/20 04:18:12;;;;;;;35.60;22.87;;;;;;;1.29;100.00;103859.94;2114077;28;20682;-61
2022/12/20 04:19:13;;;;;;;35.23;22.37;;;;;;;1.39;100.00;103865.28;2113811;28;20638;-61
2022/12/20 04:20:18;;;;;;;34.23;22.97;;;;;;;1.23;100.00;103866.56;2113904;28;20178;-61
2022/12/20 04:21:30;;;;;;;32.88;21.45;;;;;;;1.07;100.00;103846.00;2113973;28;20261;-62
2022/12/20 04:22:30;;;;;;;31.98;21.75;;;;;;;1.16;100.00;103870.75;2114036;28;20206;-62
2022/12/20 04:23:35;;;;;;;33.50;22.10;;;;;;;1.13;100.00;103869.44;2113749;28;20210;-62
2022/12/20 04:24:35;;;;;;;33.88;22.27;;;;;;;1.23;100.00;103868.50;2113574;28;20173;-61
2022/12/20 04:25:36;;;;;;;35.20;22.27;;;;;;;1.25;100.00;103872.59;2114139;28;20170;-61
2022/12/20 04:26:36;;;;;;;35.40;23.17;;;;;;;1.31;100.00;103859.66;2114139;28;20190;-61
2022/12/20 04:27:37;;;;;;;36.17;22.33;;;;;;;1.47;100.00;103870.13;2114042;28;20321;-61
2022/12/20 04:28:37;;;;;;;34.83;22.43;;;;;;;1.55;100.00;103876.84;2113860;28;20442;-62
2022/12/20 04:29:38;;;;;;;34.93;22.60;;;;;;;1.60;100.00;103876.78;2113420;28;20237;-61
2022/12/20 04:30:38;;;;;;;33.87;22.33;;;;;;;1.64;100.00;103872.38;2113849;28;20178;-61
2022/12/20 04:31:39;;;;;;;33.50;21.67;;;;;;;1.70;100.00;103879.38;2114400;27;20178;-61
2022/12/20 04:32:40;;;;;;;31.92;21.58;;;;;;;1.71;100.00;103872.81;2113287;28;20731;-61
2022/12/20 04:33:40;;;;;;;33.60;21.87;;;;;;;1.73;100.00;103873.31;2113741;28;20528;-62
2022/12/20 04:34:40;;;;;;;32.33;21.37;;;;;;;1.77;100.00;103874.34;2113465;28;20319;-61
2022/12/20 04:35:41;;;;;;;33.40;21.53;;;;;;;1.78;100.00;103878.72;2113592;28;20186;-61
2022/12/20 04:36:41;;;;;;;32.60;21.43;;;;;;;1.77;100.00;103875.19;2113801;28;20205;-62
2022/12/20 04:37:42;;;;;;;31.43;21.37;;;;;;;1.73;100.00;103881.50;2113887;28;20231;-62
2022/12/20 04:38:42;;;;;;;33.80;21.27;;;;;;;1.71;100.00;103875.53;2113704;28;20171;-62
2022/12/20 04:39:43;;;;;;;32.57;21.17;;;;;;;1.66;100.00;103881.91;2113600;28;20677;-61
2022/12/20 04:40:43;;;;;;;31.90;21.83;;;;;;;1.70;100.00;103871.97;2113817;28;20180;-62
2022/12/20 04:41:44;;;;;;;32.83;21.13;;;;;;;1.74;100.00;103874.94;2114425;28;20197;-61
2022/12/20 04:42:44;;;;;;;34.17;21.97;;;;;;;1.79;100.00;103881.16;2114174;28;20621;-62
2022/12/20 04:43:44;;;;;;;33.80;21.40;;;;;;;1.42;100.00;103801.84;2113694;28;20187;-61
2022/12/20 04:44:45;;;;;;;31.77;21.70;;;;;;;1.79;100.00;103880.34;2113665;28;20190;-62
2022/12/20 04:45:51;;;;;;;30.57;20.63;;;;;;;0.86;100.00;103762.69;2113397;28;20199;-61
2022/12/20 04:46:52;;;;;;;33.20;20.95;;;;;;;1.32;100.00;103881.22;2114046;28;20195;-61
2022/12/20 04:47:52;;;;;;;32.87;21.87;;;;;;;1.23;100.00;103879.44;2111095;28;20165;-62
2022/12/20 04:48:53;;;;;;;33.10;22.37;;;;;;;1.07;100.00;103869.75;2105849;28;20651;-62
2022/12/20 04:49:53;;;;;;;33.13;21.57;;;;;;;0.92;100.00;103854.38;2114042;28;20191;-61
2022/12/20 04:50:55;;;;;;;34.23;21.93;;;;;;;1.13;100.00;103868.63;2114238;28;20258;-61